Time,TemperatureF,DewpointF,PressureIn,WindDirection,WindDirectionDegrees,WindSpeedMPH,WindSpeedGustMPH,Humidity,HourlyPrecipIn,Conditions,Clouds,dailyrainin,SoftwareType,DateUTC
2013-04-01 00:10:00,52.6,44.0,29.90,North,350,4.0,4.0,72,0.00,,,0.00,weatherlink.com 1.10,2013-04-01 05:10:00,
2013-04-01 00:25:00,53.3,45.0,29.90,North,351,3.0,8.0,73,0.00,,,0.00,weatherlink.com 1.10,2013-04-01 05:25:00,
2013-04-01 00:40:00,54.0,44.0,29.90,NNW,339,2.0,9.0,70,0.00,,,0.00,weatherlink.com 1.10,2013-04-01 05:40:00,
2013-04-01 00:55:00,53.0,43.0,29.91,NNW,329,2.0,5.0,69,0.00,,,0.00,weatherlink.com 1.10,2013-04-01 05:55:00,
2013-04-01 01:10:00,51.5,42.0,29.91,NNW,328,4.0,5.0,69,0.00,,,0.00,weatherlink.com 1.10,2013-04-01 06:10:00,
2013-04-01 01:25:00,51.8,41.0,29.91,NNW,344,6.0,9.0,68,0.00,,,0.00,weatherlink.com 1.10,2013-04-01 06:25:00,
2013-04-01 01:40:00,51.5,42.0,29.92,North,351,4.0,10.0,69,0.00,,,0.00,weatherlink.com 1.10,2013-04-01 06:40:00,
2013-04-01 01:56:00,49.9,42.0,29.93,North,350,4.0,7.0,73,0.00,,,0.00,weatherlink.com 1.10,2013-04-01 06:56:00,
2013-04-01 02:11:00,50.1,41.0,29.94,NNW,346,7.0,13.0,72,0.00,,,0.00,weatherlink.com 1.10,2013-04-01 07:11:00,
2013-04-01 02:26:00,49.5,41.0,29.94,NNW,347,6.0,10.0,73,0.00,,,0.00,weatherlink.com 1.10,2013-04-01 07:26:00,
2013-04-01 02:41:00,48.7,40.0,29.95,NNW,335,8.0,12.0,72,0.00,,,0.00,weatherlink.com 1.10,2013-04-01 07:41:00,
2013-04-01 02:56:00,47.9,38.0,29.96,North,10,8.0,10.0,68,0.00,,,0.00,weatherlink.com 1.10,2013-04-01 07:56:00,
2013-04-01 03:11:00,47.0,37.0,29.97,NNW,340,10.0,11.0,68,0.00,,,0.00,weatherlink.com 1.10,2013-04-01 08:11:00,
2013-04-01 03:26:00,46.4,35.0,29.98,NNW,327,8.0,13.0,65,0.00,,,0.00,weatherlink.com 1.10,2013-04-01 08:26:00,
2013-04-01 03:41:00,45.2,35.0,29.98,NNW,338,5.0,9.0,68,0.00,,,0.00,weatherlink.com 1.10,2013-04-01 08:41:00,
2013-04-01 03:56:00,44.6,34.0,29.99,NNW,334,9.0,11.0,67,0.00,,,0.00,weatherlink.com 1.10,2013-04-01 08:56:00,
2013-04-01 04:11:00,44.9,34.0,30.00,North,355,7.0,12.0,67,0.00,,,0.00,weatherlink.com 1.10,2013-04-01 09:11:00,
2013-04-01 04:26:00,44.0,35.0,30.00,NNW,344,6.0,12.0,70,0.00,,,0.00,weatherlink.com 1.10,2013-04-01 09:26:00,
2013-04-01 04:41:00,44.2,36.0,30.01,NNW,342,5.0,12.0,72,0.00,,,0.00,weatherlink.com 1.10,2013-04-01 09:41:00,
2013-04-01 04:56:00,44.0,35.0,30.02,NNE,15,3.0,12.0,71,0.00,,,0.00,weatherlink.com 1.10,2013-04-01 09:56:00,
2013-04-01 05:11:00,43.5,35.0,30.02,NNE,26,3.0,10.0,71,0.00,,,0.00,weatherlink.com 1.10,2013-04-01 10:11:00,
2013-04-01 05:26:00,42.9,34.0,30.03,North,360,2.0,10.0,72,0.00,,,0.00,weatherlink.com 1.10,2013-04-01 10:26:00,
2013-04-01 05:41:00,42.2,33.0,30.04,NNW,346,9.0,10.0,71,0.00,,,0.00,weatherlink.com 1.10,2013-04-01 10:41:00,
2013-04-01 05:56:00,41.9,32.0,30.05,NE,48,4.0,12.0,68,0.00,,,0.00,weatherlink.com 1.10,2013-04-01 10:56:00,
2013-04-01 06:11:00,41.7,30.0,30.05,NNW,346,8.0,9.0,64,0.00,,,0.00,weatherlink.com 1.10,2013-04-01 11:11:00,
2013-04-01 06:27:00,41.0,30.0,30.06,NNW,348,7.0,9.0,66,0.00,,,0.00,weatherlink.com 1.10,2013-04-01 11:27:00,
2013-04-01 06:42:00,40.5,31.0,30.07,North,350,4.0,9.0,68,0.00,,,0.00,weatherlink.com 1.10,2013-04-01 11:42:00,
2013-04-01 06:57:00,40.6,32.0,30.08,North,360,3.0,8.0,71,0.00,,,0.00,weatherlink.com 1.10,2013-04-01 11:57:00,
2013-04-01 07:12:00,40.6,32.0,30.09,North,355,5.0,7.0,72,0.00,,,0.00,weatherlink.com 1.10,2013-04-01 12:12:00,
2013-04-01 07:42:00,41.4,33.0,30.10,North,355,1.0,7.0,73,0.00,,,0.00,weatherlink.com 1.10,2013-04-01 12:42:00,
2013-04-01 07:57:00,42.4,34.0,30.11,NNW,348,7.0,8.0,73,0.00,,,0.00,weatherlink.com 1.10,2013-04-01 12:57:00,
2013-04-01 08:12:00,42.1,33.0,30.12,NNW,331,9.0,14.0,70,0.00,,,0.00,weatherlink.com 1.10,2013-04-01 13:12:00,
2013-04-01 08:27:00,41.8,33.0,30.12,North,360,4.0,11.0,71,0.00,,,0.00,weatherlink.com 1.10,2013-04-01 13:27:00,
2013-04-01 08:42:00,42.8,33.0,30.13,North,355,7.0,13.0,69,0.00,,,0.00,weatherlink.com 1.10,2013-04-01 13:42:00,
2013-04-01 08:57:00,43.2,33.0,30.13,NNW,345,12.0,14.0,67,0.00,,,0.00,weatherlink.com 1.10,2013-04-01 13:57:00,
2013-04-01 09:12:00,43.3,33.0,30.13,North,355,5.0,11.0,68,0.00,,,0.00,weatherlink.com 1.10,2013-04-01 14:12:00,
2013-04-01 09:42:00,42.9,33.0,30.14,NNW,343,7.0,13.0,68,0.00,,,0.00,weatherlink.com 1.10,2013-04-01 14:42:00,
2013-04-01 09:57:00,44.0,33.0,30.15,North,355,5.0,14.0,66,0.00,,,0.00,weatherlink.com 1.10,2013-04-01 14:57:00,
2013-04-01 10:12:00,43.4,33.0,30.15,North,360,4.0,12.0,68,0.00,,,0.00,weatherlink.com 1.10,2013-04-01 15:12:00,
2013-04-01 10:27:00,43.3,34.0,30.16,NNW,348,11.0,15.0,69,0.00,,,0.00,weatherlink.com 1.10,2013-04-01 15:27:00,
2013-04-01 10:42:00,43.2,32.0,30.16,NW,325,8.0,14.0,66,0.00,,,0.00,weatherlink.com 1.10,2013-04-01 15:42:00,
2013-04-01 10:57:00,43.5,33.0,30.16,NNW,338,8.0,14.0,66,0.00,,,0.00,weatherlink.com 1.10,2013-04-01 15:57:00,
2013-04-01 11:12:00,43.9,32.0,30.16,NNW,334,14.0,16.0,64,0.00,,,0.00,weatherlink.com 1.10,2013-04-01 16:12:00,
2013-04-01 11:27:00,45.5,33.0,30.16,North,360,8.0,16.0,63,0.00,,,0.00,weatherlink.com 1.10,2013-04-01 16:27:00,
2013-04-01 11:42:00,44.3,32.0,30.16,NNW,337,9.0,14.0,62,0.00,,,0.00,weatherlink.com 1.10,2013-04-01 16:42:00,
2013-04-01 11:57:00,45.4,32.0,30.16,North,355,11.0,19.0,60,0.00,,,0.00,weatherlink.com 1.10,2013-04-01 16:57:00,
2013-04-01 12:12:00,46.5,32.0,30.16,NW,310,9.0,15.0,57,0.00,,,0.00,weatherlink.com 1.10,2013-04-01 17:12:00,
2013-04-01 12:27:00,46.1,31.0,30.16,NW,322,6.0,15.0,57,0.00,,,0.00,weatherlink.com 1.10,2013-04-01 17:27:00,
2013-04-01 12:42:00,46.8,31.0,30.16,NNW,330,13.0,15.0,55,0.00,,,0.00,weatherlink.com 1.10,2013-04-01 17:42:00,
2013-04-01 12:57:00,46.8,30.0,30.16,NW,320,6.0,16.0,53,0.00,,,0.00,weatherlink.com 1.10,2013-04-01 17:57:00,
2013-04-01 13:12:00,47.4,29.0,30.16,NW,321,10.0,16.0,49,0.00,,,0.00,weatherlink.com 1.10,2013-04-01 18:12:00,
2013-04-01 13:27:00,47.4,29.0,30.16,North,351,10.0,14.0,49,0.00,,,0.00,weatherlink.com 1.10,2013-04-01 18:27:00,
2013-04-01 13:42:00,47.8,30.0,30.16,North,355,6.0,13.0,51,0.00,,,0.00,weatherlink.com 1.10,2013-04-01 18:42:00,
2013-04-01 13:57:00,48.7,29.0,30.16,NNW,327,15.0,15.0,47,0.00,,,0.00,weatherlink.com 1.10,2013-04-01 18:57:00,
2013-04-01 14:12:00,48.7,30.0,30.16,NW,315,8.0,13.0,48,0.00,,,0.00,weatherlink.com 1.10,2013-04-01 19:12:00,
2013-04-01 14:27:00,47.8,28.0,30.16,NNW,330,9.0,14.0,46,0.00,,,0.00,weatherlink.com 1.10,2013-04-01 19:27:00,
2013-04-01 14:42:00,49.1,30.0,30.16,North,360,8.0,15.0,48,0.00,,,0.00,weatherlink.com 1.10,2013-04-01 19:42:00,
2013-04-01 14:57:00,49.8,30.0,30.16,North,350,12.0,14.0,47,0.00,,,0.00,weatherlink.com 1.10,2013-04-01 19:57:00,
2013-04-01 15:27:00,49.0,32.0,30.16,NNW,331,9.0,16.0,52,0.00,,,0.00,weatherlink.com 1.10,2013-04-01 20:27:00,
2013-04-01 15:42:00,49.6,31.0,30.16,NNW,333,10.0,17.0,49,0.00,,,0.00,weatherlink.com 1.10,2013-04-01 20:42:00,
2013-04-01 15:57:00,49.4,31.0,30.16,NNW,331,13.0,15.0,50,0.00,,,0.00,weatherlink.com 1.10,2013-04-01 20:57:00,
2013-04-01 16:12:00,49.2,28.0,30.16,North,351,9.0,15.0,44,0.00,,,0.00,weatherlink.com 1.10,2013-04-01 21:12:00,
2013-04-01 16:27:00,48.9,28.0,30.16,NNW,327,13.0,17.0,44,0.00,,,0.00,weatherlink.com 1.10,2013-04-01 21:27:00,
2013-04-01 16:42:00,49.2,29.0,30.16,NNW,327,8.0,17.0,46,0.00,,,0.00,weatherlink.com 1.10,2013-04-01 21:42:00,
2013-04-01 16:57:00,49.3,30.0,30.16,NW,313,13.0,14.0,48,0.00,,,0.00,weatherlink.com 1.10,2013-04-01 21:57:00,
2013-04-01 17:12:00,48.6,28.0,30.16,NW,313,10.0,15.0,45,0.00,,,0.00,weatherlink.com 1.10,2013-04-01 22:12:00,
2013-04-01 17:27:00,48.6,29.0,30.17,NNW,333,10.0,17.0,47,0.00,,,0.00,weatherlink.com 1.10,2013-04-01 22:27:00,
2013-04-01 17:42:00,48.3,29.0,30.17,NW,322,7.0,15.0,48,0.00,,,0.00,weatherlink.com 1.10,2013-04-01 22:42:00,
2013-04-01 17:57:00,47.9,29.0,30.17,NNW,327,6.0,12.0,49,0.00,,,0.00,weatherlink.com 1.10,2013-04-01 22:57:00,
2013-04-01 18:12:00,47.6,29.0,30.17,NNW,330,8.0,14.0,48,0.00,,,0.00,weatherlink.com 1.10,2013-04-01 23:12:00,
2013-04-01 18:27:00,47.4,29.0,30.17,NNW,330,7.0,12.0,50,0.00,,,0.00,weatherlink.com 1.10,2013-04-01 23:27:00,
2013-04-01 18:42:00,46.7,30.0,30.17,NNW,338,5.0,10.0,53,0.00,,,0.00,weatherlink.com 1.10,2013-04-01 23:42:00,
2013-04-01 18:57:00,45.8,28.0,30.17,NNW,342,6.0,11.0,51,0.00,,,0.00,weatherlink.com 1.10,2013-04-01 23:57:00,
2013-04-01 19:12:00,44.9,29.0,30.16,NNW,345,6.0,11.0,54,0.00,,,0.00,weatherlink.com 1.10,2013-04-02 00:12:00,
2013-04-01 19:27:00,44.1,30.0,30.16,NNW,342,5.0,8.0,57,0.00,,,0.00,weatherlink.com 1.10,2013-04-02 00:27:00,
2013-04-01 19:42:00,43.3,30.0,30.16,NNW,342,3.0,6.0,59,0.00,,,0.00,weatherlink.com 1.10,2013-04-02 00:42:00,
2013-04-01 19:57:00,43.5,29.0,30.16,NNW,344,5.0,9.0,57,0.00,,,0.00,weatherlink.com 1.10,2013-04-02 00:57:00,
2013-04-01 20:12:00,42.7,29.0,30.17,NNW,348,3.0,7.0,59,0.00,,,0.00,weatherlink.com 1.10,2013-04-02 01:12:00,
2013-04-01 20:27:00,41.5,29.0,30.17,NNW,348,4.0,5.0,61,0.00,,,0.00,weatherlink.com 1.10,2013-04-02 01:27:00,
2013-04-01 20:42:00,41.4,29.0,30.18,NNW,348,2.0,5.0,62,0.00,,,0.00,weatherlink.com 1.10,2013-04-02 01:42:00,
2013-04-01 20:57:00,41.0,30.0,30.18,NNW,348,3.0,4.0,64,0.00,,,0.00,weatherlink.com 1.10,2013-04-02 01:57:00,
2013-04-01 21:12:00,40.5,29.0,30.18,NNW,348,1.0,4.0,65,0.00,,,0.00,weatherlink.com 1.10,2013-04-02 02:12:00,
2013-04-01 21:28:00,40.1,30.0,30.19,NNW,348,0.0,2.0,67,0.00,,,0.00,weatherlink.com 1.10,2013-04-02 02:28:00,
2013-04-01 21:43:00,39.5,29.0,30.19,NNW,348,0.0,2.0,67,0.00,,,0.00,weatherlink.com 1.10,2013-04-02 02:43:00,
2013-04-01 21:58:00,40.0,29.0,30.19,NNW,348,0.0,1.0,64,0.00,,,0.00,weatherlink.com 1.10,2013-04-02 02:58:00,
2013-04-01 22:13:00,40.1,29.0,30.19,NNW,348,1.0,3.0,64,0.00,,,0.00,weatherlink.com 1.10,2013-04-02 03:13:00,
2013-04-01 22:28:00,39.6,29.0,30.19,NNW,348,0.0,3.0,65,0.00,,,0.00,weatherlink.com 1.10,2013-04-02 03:28:00,
2013-04-01 22:43:00,39.3,28.0,30.19,NNW,348,0.0,2.0,64,0.00,,,0.00,weatherlink.com 1.10,2013-04-02 03:43:00,
2013-04-01 22:58:00,38.9,28.0,30.20,NNW,348,0.0,2.0,64,0.00,,,0.00,weatherlink.com 1.10,2013-04-02 03:58:00,
2013-04-01 23:13:00,38.6,27.0,30.20,NNW,348,0.0,1.0,63,0.00,,,0.00,weatherlink.com 1.10,2013-04-02 04:13:00,
2013-04-01 23:28:00,37.8,27.0,30.20,NNW,348,0.0,1.0,66,0.00,,,0.00,weatherlink.com 1.10,2013-04-02 04:28:00,
2013-04-01 23:43:00,37.1,27.0,30.20,NNW,348,0.0,1.0,66,0.00,,,0.00,weatherlink.com 1.10,2013-04-02 04:43:00,
2013-04-01 23:58:00,37.7,27.0,30.21,NNW,348,0.0,2.0,65,0.00,,,0.00,weatherlink.com 1.10,2013-04-02 04:58:00,